Marrakech, Morocco

1:14 PM WET on February 27, 2015 (GMT +0000)
Menara | Change Station
CLOSE
Current Station
Airport
Location: Marrakech,
Elevation: 1529 ft
Nearby Weather Stations

Elev 1529 ft 31.61 °N, 8.04 °W | Updated 14 minutes ago

Scattered Clouds
Scattered Clouds
57 °F
Feels Like 57 °F
N
4
Wind Variable Wind from ENE

Today
High -- | Low -- °F
--% Chance of Precip.
Yesterday
High -- | Low -- °F
Precip. -- in
7:01 AM 6:28 PM
Waxing Gibbous, 68% visible
Pressure 30.33 in
Visibility 5.0 miles
Clouds Scattered Clouds 2000 ft
Dew Point 48 °F
Humidity 72%
Rainfall 0.00 in
Snow Depth Not available.
UV 7 out of 12
Pollen Not available.
Air Quality Not available.
Flu Activity Not available.
METAR GMMX 271300Z 06003KT 8000 SCT020 14/09 Q1027 NOSIG

More Conditions Fewer Conditions

Pressure 30.33 in
Visibility 5.0 miles
Clouds Scattered Clouds 2000 ft
Dew Point 48 °F
Humidity 72%
Rainfall 0.00 in
Snow Depth Not available.
UV 7 out of 12
Pollen Not available.
Air Quality Not available.
Flu Activity Not available.
METAR GMMX 271300Z 06003KT 8000 SCT020 14/09 Q1027 NOSIG

More Conditions Fewer Conditions

10-Day Weather Forecast

Almanac

Astronomy

Feb. 27, 2015 Rise Set
Actual Time
Civil Twilight
Nautical Twilight
Astronomical Twilight
Moon
Length of Visible Light
Length of Day
Tomorrow will be .
, % of the Moon is Illuminated

Today's Extremes

Country Highs Country Lows

Community

WunderPhotos

Upload Photos

1,800,668 photos uploaded!

WunderBlogs® & News

Nearby

Air Quality

  Air Quality AQ Index Pollutant
Not available.

Snow Depth

Station Depth Elevation

Earthquake Activity

City Distance Mag. Time & Date
Minimum magnitude displayed is 2.5.

Coastal Water Temperatures

Place Temperature

Nearby Weather Stations